sensor_id;sensor_type;location;lat;lon;timestamp;P1;durP1;ratioP1;P2;durP2;ratioP2
12367;SDS011;6248;49.812;6.620;2024-02-26T00:00:43;0.53;;;0.50;;
12367;SDS011;6248;49.812;6.620;2024-02-26T00:03:11;0.50;;;0.50;;
12367;SDS011;6248;49.812;6.620;2024-02-26T00:05:38;0.43;;;0.43;;
12367;SDS011;6248;49.812;6.620;2024-02-26T00:08:06;1.17;;;0.50;;
12367;SDS011;6248;49.812;6.620;2024-02-26T00:10:33;0.60;;;0.60;;
12367;SDS011;6248;49.812;6.620;2024-02-26T00:13:01;0.43;;;0.43;;
12367;SDS011;6248;49.812;6.620;2024-02-26T00:15:28;0.43;;;0.43;;
12367;SDS011;6248;49.812;6.620;2024-02-26T00:17:55;0.60;;;0.60;;
12367;SDS011;6248;49.812;6.620;2024-02-26T00:20:23;0.60;;;0.60;;
12367;SDS011;6248;49.812;6.620;2024-02-26T00:22:49;0.60;;;0.60;;
12367;SDS011;6248;49.812;6.620;2024-02-26T00:25:16;0.60;;;0.40;;
12367;SDS011;6248;49.812;6.620;2024-02-26T00:27:43;1.53;;;0.50;;
12367;SDS011;6248;49.812;6.620;2024-02-26T00:30:12;0.60;;;0.60;;
12367;SDS011;6248;49.812;6.620;2024-02-26T00:32:39;1.23;;;0.50;;
12367;SDS011;6248;49.812;6.620;2024-02-26T00:35:06;1.07;;;0.40;;
12367;SDS011;6248;49.812;6.620;2024-02-26T00:37:34;0.93;;;0.50;;
12367;SDS011;6248;49.812;6.620;2024-02-26T00:40:01;0.40;;;0.40;;
12367;SDS011;6248;49.812;6.620;2024-02-26T00:42:28;0.23;;;0.23;;
12367;SDS011;6248;49.812;6.620;2024-02-26T00:44:55;1.90;;;0.67;;
12367;SDS011;6248;49.812;6.620;2024-02-26T00:47:24;0.47;;;0.40;;
12367;SDS011;6248;49.812;6.620;2024-02-26T00:49:51;0.47;;;0.47;;
12367;SDS011;6248;49.812;6.620;2024-02-26T00:52:18;0.30;;;0.30;;
12367;SDS011;6248;49.812;6.620;2024-02-26T00:54:45;0.40;;;0.40;;
12367;SDS011;6248;49.812;6.620;2024-02-26T00:57:12;0.70;;;0.50;;
12367;SDS011;6248;49.812;6.620;2024-02-26T00:59:40;1.13;;;0.53;;
12367;SDS011;6248;49.812;6.620;2024-02-26T01:02:07;0.40;;;0.40;;
12367;SDS011;6248;49.812;6.620;2024-02-26T01:04:36;0.40;;;0.40;;
12367;SDS011;6248;49.812;6.620;2024-02-26T01:07:03;2.83;;;0.60;;
12367;SDS011;6248;49.812;6.620;2024-02-26T01:09:30;0.80;;;0.60;;
12367;SDS011;6248;49.812;6.620;2024-02-26T01:11:57;0.30;;;0.30;;
12367;SDS011;6248;49.812;6.620;2024-02-26T01:14:24;0.50;;;0.50;;
12367;SDS011;6248;49.812;6.620;2024-02-26T01:16:51;0.50;;;0.50;;
12367;SDS011;6248;49.812;6.620;2024-02-26T01:19:19;0.60;;;0.60;;
12367;SDS011;6248;49.812;6.620;2024-02-26T01:21:47;0.90;;;0.60;;
12367;SDS011;6248;49.812;6.620;2024-02-26T01:24:14;0.60;;;0.60;;
12367;SDS011;6248;49.812;6.620;2024-02-26T01:26:41;0.47;;;0.47;;
12367;SDS011;6248;49.812;6.620;2024-02-26T01:29:08;0.50;;;0.50;;
12367;SDS011;6248;49.812;6.620;2024-02-26T01:31:38;0.63;;;0.63;;
12367;SDS011;6248;49.812;6.620;2024-02-26T01:34:05;0.97;;;0.63;;
12367;SDS011;6248;49.812;6.620;2024-02-26T01:36:33;2.87;;;1.10;;
12367;SDS011;6248;49.812;6.620;2024-02-26T01:39:02;0.50;;;0.50;;
12367;SDS011;6248;49.812;6.620;2024-02-26T01:41:29;0.40;;;0.40;;
12367;SDS011;6248;49.812;6.620;2024-02-26T01:43:56;0.60;;;0.60;;
12367;SDS011;6248;49.812;6.620;2024-02-26T01:46:23;0.70;;;0.67;;
12367;SDS011;6248;49.812;6.620;2024-02-26T01:48:51;1.87;;;0.87;;
12367;SDS011;6248;49.812;6.620;2024-02-26T01:51:18;0.57;;;0.57;;
12367;SDS011;6248;49.812;6.620;2024-02-26T01:53:45;0.50;;;0.50;;
12367;SDS011;6248;49.812;6.620;2024-02-26T01:56:14;0.67;;;0.67;;
12367;SDS011;6248;49.812;6.620;2024-02-26T01:58:42;1.17;;;0.73;;
12367;SDS011;6248;49.812;6.620;2024-02-26T02:01:09;0.53;;;0.53;;
12367;SDS011;6248;49.812;6.620;2024-02-26T02:03:37;0.90;;;0.50;;
12367;SDS011;6248;49.812;6.620;2024-02-26T02:06:06;0.73;;;0.73;;
12367;SDS011;6248;49.812;6.620;2024-02-26T02:08:34;1.03;;;0.63;;
12367;SDS011;6248;49.812;6.620;2024-02-26T02:11:01;0.60;;;0.60;;
12367;SDS011;6248;49.812;6.620;2024-02-26T02:13:30;0.60;;;0.60;;
12367;SDS011;6248;49.812;6.620;2024-02-26T02:15:57;0.60;;;0.50;;
12367;SDS011;6248;49.812;6.620;2024-02-26T02:18:24;1.17;;;0.70;;
12367;SDS011;6248;49.812;6.620;2024-02-26T02:20:52;0.47;;;0.47;;
12367;SDS011;6248;49.812;6.620;2024-02-26T02:23:21;1.97;;;0.80;;
12367;SDS011;6248;49.812;6.620;2024-02-26T02:25:49;1.33;;;0.60;;
12367;SDS011;6248;49.812;6.620;2024-02-26T02:28:16;0.40;;;0.40;;
12367;SDS011;6248;49.812;6.620;2024-02-26T02:30:43;0.60;;;0.57;;
12367;SDS011;6248;49.812;6.620;2024-02-26T02:33:10;1.03;;;0.70;;
12367;SDS011;6248;49.812;6.620;2024-02-26T02:35:37;0.93;;;0.70;;
12367;SDS011;6248;49.812;6.620;2024-02-26T02:38:06;0.63;;;0.63;;
12367;SDS011;6248;49.812;6.620;2024-02-26T02:40:33;0.73;;;0.70;;
12367;SDS011;6248;49.812;6.620;2024-02-26T02:43:00;0.60;;;0.60;;
12367;SDS011;6248;49.812;6.620;2024-02-26T02:45:27;0.60;;;0.60;;
12367;SDS011;6248;49.812;6.620;2024-02-26T02:47:54;0.60;;;0.60;;
12367;SDS011;6248;49.812;6.620;2024-02-26T02:50:21;1.57;;;0.57;;
12367;SDS011;6248;49.812;6.620;2024-02-26T02:52:48;0.63;;;0.63;;
12367;SDS011;6248;49.812;6.620;2024-02-26T02:55:17;0.67;;;0.50;;
12367;SDS011;6248;49.812;6.620;2024-02-26T02:57:45;0.77;;;0.70;;
12367;SDS011;6248;49.812;6.620;2024-02-26T03:00:12;0.57;;;0.57;;
12367;SDS011;6248;49.812;6.620;2024-02-26T03:02:39;0.60;;;0.60;;
12367;SDS011;6248;49.812;6.620;2024-02-26T03:05:08;0.60;;;0.60;;
12367;SDS011;6248;49.812;6.620;2024-02-26T03:07:35;0.60;;;0.60;;
12367;SDS011;6248;49.812;6.620;2024-02-26T03:10:02;0.50;;;0.50;;
12367;SDS011;6248;49.812;6.620;2024-02-26T03:12:31;0.40;;;0.40;;
12367;SDS011;6248;49.812;6.620;2024-02-26T03:14:58;1.67;;;0.60;;
12367;SDS011;6248;49.812;6.620;2024-02-26T03:17:27;0.50;;;0.40;;
12367;SDS011;6248;49.812;6.620;2024-02-26T03:19:55;0.50;;;0.50;;
12367;SDS011;6248;49.812;6.620;2024-02-26T03:22:22;0.60;;;0.60;;
12367;SDS011;6248;49.812;6.620;2024-02-26T03:24:49;0.60;;;0.53;;
12367;SDS011;6248;49.812;6.620;2024-02-26T03:27:16;1.40;;;0.57;;
12367;SDS011;6248;49.812;6.620;2024-02-26T03:29:44;0.50;;;0.50;;
12367;SDS011;6248;49.812;6.620;2024-02-26T03:32:13;0.30;;;0.30;;
12367;SDS011;6248;49.812;6.620;2024-02-26T03:34:40;0.50;;;0.50;;
12367;SDS011;6248;49.812;6.620;2024-02-26T03:37:07;0.70;;;0.70;;
12367;SDS011;6248;49.812;6.620;2024-02-26T03:39:35;0.40;;;0.40;;
12367;SDS011;6248;49.812;6.620;2024-02-26T03:42:03;0.60;;;0.60;;
12367;SDS011;6248;49.812;6.620;2024-02-26T03:44:30;0.70;;;0.70;;
12367;SDS011;6248;49.812;6.620;2024-02-26T03:46:58;1.23;;;0.60;;
12367;SDS011;6248;49.812;6.620;2024-02-26T03:49:25;0.43;;;0.43;;
12367;SDS011;6248;49.812;6.620;2024-02-26T03:51:53;0.40;;;0.40;;
12367;SDS011;6248;49.812;6.620;2024-02-26T03:54:20;1.13;;;0.70;;
12367;SDS011;6248;49.812;6.620;2024-02-26T03:56:47;0.50;;;0.50;;
12367;SDS011;6248;49.812;6.620;2024-02-26T03:59:13;0.70;;;0.70;;
12367;SDS011;6248;49.812;6.620;2024-02-26T04:01:44;0.57;;;0.50;;
12367;SDS011;6248;49.812;6.620;2024-02-26T04:04:13;0.60;;;0.60;;
12367;SDS011;6248;49.812;6.620;2024-02-26T04:06:43;0.50;;;0.50;;
12367;SDS011;6248;49.812;6.620;2024-02-26T04:09:11;0.40;;;0.40;;
12367;SDS011;6248;49.812;6.620;2024-02-26T04:11:38;0.60;;;0.60;;
12367;SDS011;6248;49.812;6.620;2024-02-26T04:14:05;0.50;;;0.50;;
12367;SDS011;6248;49.812;6.620;2024-02-26T04:16:33;0.83;;;0.70;;
12367;SDS011;6248;49.812;6.620;2024-02-26T04:19:01;0.40;;;0.37;;
12367;SDS011;6248;49.812;6.620;2024-02-26T04:21:29;0.33;;;0.33;;
12367;SDS011;6248;49.812;6.620;2024-02-26T04:23:56;0.37;;;0.37;;
12367;SDS011;6248;49.812;6.620;2024-02-26T04:26:26;0.40;;;0.40;;
12367;SDS011;6248;49.812;6.620;2024-02-26T04:28:53;0.50;;;0.50;;
12367;SDS011;6248;49.812;6.620;2024-02-26T04:31:20;0.97;;;0.50;;
12367;SDS011;6248;49.812;6.620;2024-02-26T04:33:47;0.60;;;0.50;;
12367;SDS011;6248;49.812;6.620;2024-02-26T04:36:15;0.30;;;0.30;;
12367;SDS011;6248;49.812;6.620;2024-02-26T04:38:43;0.77;;;0.60;;
12367;SDS011;6248;49.812;6.620;2024-02-26T04:41:11;0.53;;;0.50;;
12367;SDS011;6248;49.812;6.620;2024-02-26T04:43:38;1.27;;;0.70;;
12367;SDS011;6248;49.812;6.620;2024-02-26T04:46:06;0.50;;;0.50;;
12367;SDS011;6248;49.812;6.620;2024-02-26T04:48:34;0.43;;;0.40;;
12367;SDS011;6248;49.812;6.620;2024-02-26T04:51:01;0.50;;;0.50;;
12367;SDS011;6248;49.812;6.620;2024-02-26T04:53:27;0.33;;;0.33;;
12367;SDS011;6248;49.812;6.620;2024-02-26T04:55:56;1.13;;;0.53;;
12367;SDS011;6248;49.812;6.620;2024-02-26T04:58:23;0.50;;;0.50;;
12367;SDS011;6248;49.812;6.620;2024-02-26T05:00:50;0.27;;;0.27;;
12367;SDS011;6248;49.812;6.620;2024-02-26T05:03:17;0.30;;;0.30;;
12367;SDS011;6248;49.812;6.620;2024-02-26T05:05:44;0.63;;;0.40;;
12367;SDS011;6248;49.812;6.620;2024-02-26T05:08:12;0.60;;;0.40;;
12367;SDS011;6248;49.812;6.620;2024-02-26T05:10:39;0.57;;;0.57;;
12367;SDS011;6248;49.812;6.620;2024-02-26T05:13:07;0.90;;;0.50;;
12367;SDS011;6248;49.812;6.620;2024-02-26T05:15:35;0.50;;;0.50;;
12367;SDS011;6248;49.812;6.620;2024-02-26T05:18:02;0.30;;;0.30;;
12367;SDS011;6248;49.812;6.620;2024-02-26T05:20:29;0.60;;;0.43;;
12367;SDS011;6248;49.812;6.620;2024-02-26T05:23:00;0.50;;;0.20;;
12367;SDS011;6248;49.812;6.620;2024-02-26T05:25:28;0.40;;;0.40;;
12367;SDS011;6248;49.812;6.620;2024-02-26T05:27:56;0.20;;;0.20;;
12367;SDS011;6248;49.812;6.620;2024-02-26T05:30:24;0.47;;;0.47;;
12367;SDS011;6248;49.812;6.620;2024-02-26T05:32:53;0.97;;;0.30;;
12367;SDS011;6248;49.812;6.620;2024-02-26T05:35:20;0.33;;;0.33;;
12367;SDS011;6248;49.812;6.620;2024-02-26T05:37:47;0.40;;;0.40;;
12367;SDS011;6248;49.812;6.620;2024-02-26T05:40:14;0.30;;;0.30;;
12367;SDS011;6248;49.812;6.620;2024-02-26T05:42:41;0.37;;;0.37;;
12367;SDS011;6248;49.812;6.620;2024-02-26T05:45:10;0.40;;;0.20;;
12367;SDS011;6248;49.812;6.620;2024-02-26T05:47:38;0.30;;;0.30;;
12367;SDS011;6248;49.812;6.620;2024-02-26T05:50:08;0.57;;;0.40;;
12367;SDS011;6248;49.812;6.620;2024-02-26T05:52:36;0.30;;;0.30;;
12367;SDS011;6248;49.812;6.620;2024-02-26T05:55:04;0.37;;;0.37;;
12367;SDS011;6248;49.812;6.620;2024-02-26T05:57:31;0.53;;;0.50;;
12367;SDS011;6248;49.812;6.620;2024-02-26T05:59:58;1.50;;;0.40;;
12367;SDS011;6248;49.812;6.620;2024-02-26T06:02:28;0.30;;;0.30;;
12367;SDS011;6248;49.812;6.620;2024-02-26T06:04:58;0.20;;;0.20;;
12367;SDS011;6248;49.812;6.620;2024-02-26T06:07:25;0.30;;;0.30;;
12367;SDS011;6248;49.812;6.620;2024-02-26T06:09:52;0.93;;;0.50;;
12367;SDS011;6248;49.812;6.620;2024-02-26T06:12:20;0.40;;;0.40;;
12367;SDS011;6248;49.812;6.620;2024-02-26T06:14:47;0.30;;;0.30;;
12367;SDS011;6248;49.812;6.620;2024-02-26T06:17:14;0.40;;;0.40;;
12367;SDS011;6248;49.812;6.620;2024-02-26T06:19:42;0.33;;;0.33;;
12367;SDS011;6248;49.812;6.620;2024-02-26T06:22:11;0.77;;;0.53;;
12367;SDS011;6248;49.812;6.620;2024-02-26T06:24:39;0.53;;;0.50;;
12367;SDS011;6248;49.812;6.620;2024-02-26T06:27:06;0.77;;;0.60;;
12367;SDS011;6248;49.812;6.620;2024-02-26T06:29:33;0.63;;;0.63;;
12367;SDS011;6248;49.812;6.620;2024-02-26T06:32:01;0.80;;;0.60;;
12367;SDS011;6248;49.812;6.620;2024-02-26T06:34:28;0.80;;;0.43;;
12367;SDS011;6248;49.812;6.620;2024-02-26T06:36:55;1.47;;;0.63;;
12367;SDS011;6248;49.812;6.620;2024-02-26T06:39:24;0.70;;;0.70;;
12367;SDS011;6248;49.812;6.620;2024-02-26T06:41:51;1.03;;;0.70;;
12367;SDS011;6248;49.812;6.620;2024-02-26T06:44:24;0.97;;;0.63;;
12367;SDS011;6248;49.812;6.620;2024-02-26T06:46:56;0.50;;;0.50;;
12367;SDS011;6248;49.812;6.620;2024-02-26T06:49:24;0.60;;;0.60;;
12367;SDS011;6248;49.812;6.620;2024-02-26T06:51:51;0.60;;;0.60;;
12367;SDS011;6248;49.812;6.620;2024-02-26T06:54:19;0.70;;;0.70;;
12367;SDS011;6248;49.812;6.620;2024-02-26T06:56:48;0.50;;;0.50;;
12367;SDS011;6248;49.812;6.620;2024-02-26T06:59:15;1.17;;;0.90;;
12367;SDS011;6248;49.812;6.620;2024-02-26T07:01:42;1.00;;;1.00;;
12367;SDS011;6248;49.812;6.620;2024-02-26T07:04:09;1.53;;;0.83;;
12367;SDS011;6248;49.812;6.620;2024-02-26T07:06:37;1.33;;;1.20;;
12367;SDS011;6248;49.812;6.620;2024-02-26T07:09:04;0.90;;;0.90;;
12367;SDS011;6248;49.812;6.620;2024-02-26T07:11:32;1.17;;;0.90;;
12367;SDS011;6248;49.812;6.620;2024-02-26T07:14:01;1.00;;;0.90;;
12367;SDS011;6248;49.812;6.620;2024-02-26T07:16:28;0.83;;;0.83;;
12367;SDS011;6248;49.812;6.620;2024-02-26T07:18:55;0.80;;;0.80;;
12367;SDS011;6248;49.812;6.620;2024-02-26T07:21:23;0.73;;;0.73;;
12367;SDS011;6248;49.812;6.620;2024-02-26T07:23:50;0.80;;;0.80;;
12367;SDS011;6248;49.812;6.620;2024-02-26T07:26:16;1.00;;;1.00;;
12367;SDS011;6248;49.812;6.620;2024-02-26T07:28:44;0.87;;;0.87;;
12367;SDS011;6248;49.812;6.620;2024-02-26T07:31:13;1.00;;;0.90;;
12367;SDS011;6248;49.812;6.620;2024-02-26T07:33:40;1.60;;;0.60;;
12367;SDS011;6248;49.812;6.620;2024-02-26T07:36:07;0.73;;;0.73;;
12367;SDS011;6248;49.812;6.620;2024-02-26T07:38:34;0.40;;;0.40;;
12367;SDS011;6248;49.812;6.620;2024-02-26T07:41:01;1.03;;;0.40;;
12367;SDS011;6248;49.812;6.620;2024-02-26T07:43:28;0.30;;;0.30;;
12367;SDS011;6248;49.812;6.620;2024-02-26T07:45:55;0.40;;;0.40;;
12367;SDS011;6248;49.812;6.620;2024-02-26T07:48:24;0.63;;;0.40;;
12367;SDS011;6248;49.812;6.620;2024-02-26T07:50:51;0.60;;;0.60;;
12367;SDS011;6248;49.812;6.620;2024-02-26T07:53:18;0.50;;;0.50;;
12367;SDS011;6248;49.812;6.620;2024-02-26T07:55:45;0.70;;;0.70;;
12367;SDS011;6248;49.812;6.620;2024-02-26T07:58:12;0.60;;;0.60;;
12367;SDS011;6248;49.812;6.620;2024-02-26T08:00:39;1.20;;;0.70;;
12367;SDS011;6248;49.812;6.620;2024-02-26T08:03:07;0.50;;;0.50;;
12367;SDS011;6248;49.812;6.620;2024-02-26T08:05:35;0.50;;;0.50;;
12367;SDS011;6248;49.812;6.620;2024-02-26T08:08:05;0.60;;;0.60;;
12367;SDS011;6248;49.812;6.620;2024-02-26T08:10:33;0.40;;;0.40;;
12367;SDS011;6248;49.812;6.620;2024-02-26T08:13:00;0.60;;;0.60;;
12367;SDS011;6248;49.812;6.620;2024-02-26T08:15:31;0.50;;;0.50;;
12367;SDS011;6248;49.812;6.620;2024-02-26T08:17:59;0.60;;;0.60;;
12367;SDS011;6248;49.812;6.620;2024-02-26T08:20:27;0.40;;;0.33;;
12367;SDS011;6248;49.812;6.620;2024-02-26T08:22:56;0.47;;;0.40;;
12367;SDS011;6248;49.812;6.620;2024-02-26T08:25:23;0.67;;;0.67;;
12367;SDS011;6248;49.812;6.620;2024-02-26T08:27:51;0.40;;;0.40;;
12367;SDS011;6248;49.812;6.620;2024-02-26T08:30:19;0.90;;;0.70;;
12367;SDS011;6248;49.812;6.620;2024-02-26T08:32:47;0.50;;;0.40;;
12367;SDS011;6248;49.812;6.620;2024-02-26T08:35:14;0.50;;;0.50;;
12367;SDS011;6248;49.812;6.620;2024-02-26T08:37:43;0.40;;;0.40;;
12367;SDS011;6248;49.812;6.620;2024-02-26T08:40:12;2.07;;;0.50;;
12367;SDS011;6248;49.812;6.620;2024-02-26T08:42:40;1.13;;;0.60;;
12367;SDS011;6248;49.812;6.620;2024-02-26T08:45:07;1.03;;;0.60;;
12367;SDS011;6248;49.812;6.620;2024-02-26T08:47:35;0.47;;;0.47;;
12367;SDS011;6248;49.812;6.620;2024-02-26T08:50:02;0.50;;;0.50;;
12367;SDS011;6248;49.812;6.620;2024-02-26T08:52:30;0.87;;;0.87;;
12367;SDS011;6248;49.812;6.620;2024-02-26T08:54:58;0.50;;;0.50;;
12367;SDS011;6248;49.812;6.620;2024-02-26T08:57:26;0.93;;;0.90;;
12367;SDS011;6248;49.812;6.620;2024-02-26T08:59:53;0.90;;;0.90;;
12367;SDS011;6248;49.812;6.620;2024-02-26T09:02:20;0.60;;;0.60;;
12367;SDS011;6248;49.812;6.620;2024-02-26T09:04:48;0.53;;;0.53;;
12367;SDS011;6248;49.812;6.620;2024-02-26T09:07:16;1.03;;;0.67;;
12367;SDS011;6248;49.812;6.620;2024-02-26T09:09:43;0.60;;;0.60;;
12367;SDS011;6248;49.812;6.620;2024-02-26T09:12:10;0.77;;;0.77;;
12367;SDS011;6248;49.812;6.620;2024-02-26T09:14:38;2.43;;;2.23;;
12367;SDS011;6248;49.812;6.620;2024-02-26T09:17:06;1.53;;;1.43;;
12367;SDS011;6248;49.812;6.620;2024-02-26T09:19:33;1.77;;;1.20;;
12367;SDS011;6248;49.812;6.620;2024-02-26T09:22:00;0.90;;;0.90;;
12367;SDS011;6248;49.812;6.620;2024-02-26T09:24:27;0.80;;;0.77;;
12367;SDS011;6248;49.812;6.620;2024-02-26T09:26:54;1.67;;;0.77;;
12367;SDS011;6248;49.812;6.620;2024-02-26T09:29:22;0.60;;;0.60;;
12367;SDS011;6248;49.812;6.620;2024-02-26T09:31:50;1.07;;;1.07;;
12367;SDS011;6248;49.812;6.620;2024-02-26T09:34:17;1.53;;;1.43;;
12367;SDS011;6248;49.812;6.620;2024-02-26T09:36:45;1.70;;;1.60;;
12367;SDS011;6248;49.812;6.620;2024-02-26T09:39:12;1.27;;;1.27;;
12367;SDS011;6248;49.812;6.620;2024-02-26T09:41:42;1.40;;;1.30;;
12367;SDS011;6248;49.812;6.620;2024-02-26T09:44:09;1.20;;;1.00;;
12367;SDS011;6248;49.812;6.620;2024-02-26T09:46:37;1.73;;;1.10;;
12367;SDS011;6248;49.812;6.620;2024-02-26T09:49:06;1.00;;;0.90;;
12367;SDS011;6248;49.812;6.620;2024-02-26T09:51:35;1.43;;;0.90;;
12367;SDS011;6248;49.812;6.620;2024-02-26T09:54:03;1.27;;;0.87;;
12367;SDS011;6248;49.812;6.620;2024-02-26T09:56:30;1.10;;;1.00;;
12367;SDS011;6248;49.812;6.620;2024-02-26T09:58:58;0.80;;;0.80;;
12367;SDS011;6248;49.812;6.620;2024-02-26T10:01:25;0.77;;;0.77;;
12367;SDS011;6248;49.812;6.620;2024-02-26T10:03:55;1.90;;;0.87;;
12367;SDS011;6248;49.812;6.620;2024-02-26T10:06:23;0.73;;;0.73;;
12367;SDS011;6248;49.812;6.620;2024-02-26T10:08:51;1.00;;;1.00;;
12367;SDS011;6248;49.812;6.620;2024-02-26T10:11:18;1.30;;;1.20;;
12367;SDS011;6248;49.812;6.620;2024-02-26T10:13:46;1.10;;;1.00;;
12367;SDS011;6248;49.812;6.620;2024-02-26T10:16:13;1.27;;;1.17;;
12367;SDS011;6248;49.812;6.620;2024-02-26T10:18:45;1.83;;;1.37;;
12367;SDS011;6248;49.812;6.620;2024-02-26T10:21:12;2.73;;;2.53;;
12367;SDS011;6248;49.812;6.620;2024-02-26T10:23:43;7.43;;;6.53;;
12367;SDS011;6248;49.812;6.620;2024-02-26T10:26:10;5.43;;;4.97;;
12367;SDS011;6248;49.812;6.620;2024-02-26T10:28:38;5.20;;;4.50;;
12367;SDS011;6248;49.812;6.620;2024-02-26T10:31:06;3.60;;;3.30;;
12367;SDS011;6248;49.812;6.620;2024-02-26T10:33:33;6.23;;;5.23;;
12367;SDS011;6248;49.812;6.620;2024-02-26T10:36:01;4.37;;;3.97;;
12367;SDS011;6248;49.812;6.620;2024-02-26T10:38:29;7.00;;;6.13;;
12367;SDS011;6248;49.812;6.620;2024-02-26T10:40:57;4.23;;;3.80;;
12367;SDS011;6248;49.812;6.620;2024-02-26T10:43:25;2.97;;;2.70;;
12367;SDS011;6248;49.812;6.620;2024-02-26T10:45:54;4.17;;;3.20;;
12367;SDS011;6248;49.812;6.620;2024-02-26T10:48:21;2.80;;;2.60;;
12367;SDS011;6248;49.812;6.620;2024-02-26T10:50:49;2.07;;;1.97;;
12367;SDS011;6248;49.812;6.620;2024-02-26T10:53:20;1.87;;;1.77;;
12367;SDS011;6248;49.812;6.620;2024-02-26T10:55:48;1.70;;;1.60;;
12367;SDS011;6248;49.812;6.620;2024-02-26T10:58:18;1.40;;;1.30;;
12367;SDS011;6248;49.812;6.620;2024-02-26T11:00:46;1.27;;;1.17;;
12367;SDS011;6248;49.812;6.620;2024-02-26T11:03:14;1.30;;;1.20;;
12367;SDS011;6248;49.812;6.620;2024-02-26T11:05:42;1.40;;;1.30;;
12367;SDS011;6248;49.812;6.620;2024-02-26T11:08:11;1.23;;;1.13;;
12367;SDS011;6248;49.812;6.620;2024-02-26T11:10:40;1.97;;;1.87;;
12367;SDS011;6248;49.812;6.620;2024-02-26T11:13:10;1.60;;;1.50;;
12367;SDS011;6248;49.812;6.620;2024-02-26T11:15:40;1.93;;;1.60;;
12367;SDS011;6248;49.812;6.620;2024-02-26T11:18:08;2.30;;;1.43;;
12367;SDS011;6248;49.812;6.620;2024-02-26T11:20:38;2.93;;;2.03;;
12367;SDS011;6248;49.812;6.620;2024-02-26T11:23:05;2.23;;;1.63;;
12367;SDS011;6248;49.812;6.620;2024-02-26T11:25:33;1.93;;;1.80;;
12367;SDS011;6248;49.812;6.620;2024-02-26T11:28:01;2.07;;;1.87;;
12367;SDS011;6248;49.812;6.620;2024-02-26T11:30:30;1.60;;;1.27;;
12367;SDS011;6248;49.812;6.620;2024-02-26T11:32:59;4.47;;;2.83;;
12367;SDS011;6248;49.812;6.620;2024-02-26T11:35:26;3.03;;;2.40;;
12367;SDS011;6248;49.812;6.620;2024-02-26T11:37:55;2.30;;;2.10;;
12367;SDS011;6248;49.812;6.620;2024-02-26T11:40:23;1.67;;;1.53;;
12367;SDS011;6248;49.812;6.620;2024-02-26T11:42:51;1.37;;;1.20;;
12367;SDS011;6248;49.812;6.620;2024-02-26T11:48:05;2.30;;;1.70;;
12367;SDS011;6248;49.812;6.620;2024-02-26T11:50:40;1.40;;;1.30;;
12367;SDS011;6248;49.812;6.620;2024-02-26T11:53:20;1.60;;;1.50;;
12367;SDS011;6248;49.812;6.620;2024-02-26T11:55:47;1.50;;;1.40;;
12367;SDS011;6248;49.812;6.620;2024-02-26T11:58:15;1.73;;;1.50;;
12367;SDS011;6248;49.812;6.620;2024-02-26T12:00:42;1.57;;;1.47;;
12367;SDS011;6248;49.812;6.620;2024-02-26T12:03:11;1.60;;;1.50;;
12367;SDS011;6248;49.812;6.620;2024-02-26T12:05:41;1.50;;;1.40;;
12367;SDS011;6248;49.812;6.620;2024-02-26T12:08:12;1.70;;;1.60;;
12367;SDS011;6248;49.812;6.620;2024-02-26T12:10:43;1.27;;;1.17;;
12367;SDS011;6248;49.812;6.620;2024-02-26T12:13:11;1.40;;;1.30;;
12367;SDS011;6248;49.812;6.620;2024-02-26T12:15:39;1.00;;;1.00;;
12367;SDS011;6248;49.812;6.620;2024-02-26T12:18:15;1.13;;;1.03;;
12367;SDS011;6248;49.812;6.620;2024-02-26T12:20:46;2.00;;;1.07;;
12367;SDS011;6248;49.812;6.620;2024-02-26T12:23:14;1.37;;;1.27;;
12367;SDS011;6248;49.812;6.620;2024-02-26T12:25:43;1.30;;;1.20;;
12367;SDS011;6248;49.812;6.620;2024-02-26T12:28:13;1.77;;;1.10;;
12367;SDS011;6248;49.812;6.620;2024-02-26T12:30:41;2.00;;;1.67;;
12367;SDS011;6248;49.812;6.620;2024-02-26T12:33:08;1.40;;;1.30;;
12367;SDS011;6248;49.812;6.620;2024-02-26T12:35:36;1.50;;;1.40;;
12367;SDS011;6248;49.812;6.620;2024-02-26T12:38:03;2.33;;;1.80;;
12367;SDS011;6248;49.812;6.620;2024-02-26T12:40:31;2.83;;;1.90;;
12367;SDS011;6248;49.812;6.620;2024-02-26T12:42:58;2.83;;;1.33;;
12367;SDS011;6248;49.812;6.620;2024-02-26T12:45:25;1.63;;;1.10;;
12367;SDS011;6248;49.812;6.620;2024-02-26T12:47:53;1.30;;;1.20;;
12367;SDS011;6248;49.812;6.620;2024-02-26T12:50:21;1.53;;;1.00;;
12367;SDS011;6248;49.812;6.620;2024-02-26T12:52:49;1.20;;;0.97;;
12367;SDS011;6248;49.812;6.620;2024-02-26T12:55:18;2.20;;;1.70;;
12367;SDS011;6248;49.812;6.620;2024-02-26T12:57:46;0.90;;;0.90;;
12367;SDS011;6248;49.812;6.620;2024-02-26T13:00:15;1.50;;;1.40;;
12367;SDS011;6248;49.812;6.620;2024-02-26T13:02:43;3.00;;;1.77;;
12367;SDS011;6248;49.812;6.620;2024-02-26T13:05:12;4.43;;;2.77;;
12367;SDS011;6248;49.812;6.620;2024-02-26T13:07:40;1.77;;;1.47;;
12367;SDS011;6248;49.812;6.620;2024-02-26T13:10:10;1.33;;;1.23;;
12367;SDS011;6248;49.812;6.620;2024-02-26T13:12:41;3.43;;;2.23;;
12367;SDS011;6248;49.812;6.620;2024-02-26T13:15:09;1.30;;;1.10;;
12367;SDS011;6248;49.812;6.620;2024-02-26T13:17:42;2.47;;;2.13;;
12367;SDS011;6248;49.812;6.620;2024-02-26T13:20:09;1.17;;;1.00;;
12367;SDS011;6248;49.812;6.620;2024-02-26T13:22:37;0.93;;;0.83;;
12367;SDS011;6248;49.812;6.620;2024-02-26T13:25:07;1.90;;;0.98;;
12367;SDS011;6248;49.812;6.620;2024-02-26T13:27:36;1.33;;;0.80;;
12367;SDS011;6248;49.812;6.620;2024-02-26T13:30:05;1.07;;;1.00;;
12367;SDS011;6248;49.812;6.620;2024-02-26T13:32:33;1.17;;;0.80;;
12367;SDS011;6248;49.812;6.620;2024-02-26T13:35:07;1.80;;;0.80;;
12367;SDS011;6248;49.812;6.620;2024-02-26T13:37:34;1.83;;;1.23;;
12367;SDS011;6248;49.812;6.620;2024-02-26T13:40:04;0.77;;;0.77;;
12367;SDS011;6248;49.812;6.620;2024-02-26T13:42:32;1.57;;;1.47;;
12367;SDS011;6248;49.812;6.620;2024-02-26T13:45:01;1.07;;;0.97;;
12367;SDS011;6248;49.812;6.620;2024-02-26T13:47:31;1.60;;;1.00;;
12367;SDS011;6248;49.812;6.620;2024-02-26T13:50:01;1.15;;;0.90;;
12367;SDS011;6248;49.812;6.620;2024-02-26T13:52:29;2.40;;;1.00;;
12367;SDS011;6248;49.812;6.620;2024-02-26T13:54:58;1.60;;;0.90;;
12367;SDS011;6248;49.812;6.620;2024-02-26T13:57:25;1.37;;;1.10;;
12367;SDS011;6248;49.812;6.620;2024-02-26T13:59:53;1.93;;;1.60;;
12367;SDS011;6248;49.812;6.620;2024-02-26T14:02:23;1.90;;;1.80;;
12367;SDS011;6248;49.812;6.620;2024-02-26T14:04:51;2.07;;;1.97;;
12367;SDS011;6248;49.812;6.620;2024-02-26T14:07:18;2.10;;;1.40;;
12367;SDS011;6248;49.812;6.620;2024-02-26T14:09:45;2.10;;;1.50;;
12367;SDS011;6248;49.812;6.620;2024-02-26T14:12:13;2.67;;;2.00;;
12367;SDS011;6248;49.812;6.620;2024-02-26T14:14:41;5.53;;;2.50;;
12367;SDS011;6248;49.812;6.620;2024-02-26T14:17:08;2.43;;;1.30;;
12367;SDS011;6248;49.812;6.620;2024-02-26T14:19:36;3.87;;;2.33;;
12367;SDS011;6248;49.812;6.620;2024-02-26T14:22:04;3.30;;;1.90;;
12367;SDS011;6248;49.812;6.620;2024-02-26T14:24:32;3.93;;;2.30;;
12367;SDS011;6248;49.812;6.620;2024-02-26T14:26:59;1.67;;;1.50;;
12367;SDS011;6248;49.812;6.620;2024-02-26T14:29:26;1.93;;;1.40;;
12367;SDS011;6248;49.812;6.620;2024-02-26T14:31:53;1.87;;;1.30;;
12367;SDS011;6248;49.812;6.620;2024-02-26T14:34:21;1.37;;;1.27;;
12367;SDS011;6248;49.812;6.620;2024-02-26T14:36:50;1.80;;;1.10;;
12367;SDS011;6248;49.812;6.620;2024-02-26T14:39:17;1.43;;;1.33;;
12367;SDS011;6248;49.812;6.620;2024-02-26T14:41:45;2.40;;;1.00;;
12367;SDS011;6248;49.812;6.620;2024-02-26T14:44:12;1.60;;;1.30;;
12367;SDS011;6248;49.812;6.620;2024-02-26T14:46:39;1.47;;;1.30;;
12367;SDS011;6248;49.812;6.620;2024-02-26T14:49:07;1.60;;;1.50;;
12367;SDS011;6248;49.812;6.620;2024-02-26T14:51:34;1.40;;;1.20;;
12367;SDS011;6248;49.812;6.620;2024-02-26T14:54:02;1.77;;;1.67;;
12367;SDS011;6248;49.812;6.620;2024-02-26T14:56:29;1.87;;;1.77;;
12367;SDS011;6248;49.812;6.620;2024-02-26T14:58:56;2.23;;;1.93;;
12367;SDS011;6248;49.812;6.620;2024-02-26T15:01:23;2.23;;;1.63;;
12367;SDS011;6248;49.812;6.620;2024-02-26T15:03:50;2.00;;;1.50;;
12367;SDS011;6248;49.812;6.620;2024-02-26T15:06:18;2.10;;;1.63;;